sensor_id;sensor_type;location;lat;lon;timestamp;pressure;altitude;pressure_sealevel;temperature;humidity
10176;BME280;18221;38.704;0.152;2024-03-08T00:00:03;98117.63;;;17.95;52.92
10176;BME280;18221;38.704;0.152;2024-03-08T00:02:36;98125.66;;;17.95;53.02
10176;BME280;18221;38.704;0.152;2024-03-08T00:05:05;98113.25;;;17.94;52.97
10176;BME280;18221;38.704;0.152;2024-03-08T00:07:34;98099.22;;;17.92;52.97
10176;BME280;18221;38.704;0.152;2024-03-08T00:10:03;98086.19;;;18.02;52.80
10176;BME280;18221;38.704;0.152;2024-03-08T00:12:31;98075.44;;;18.02;52.82
10176;BME280;18221;38.704;0.152;2024-03-08T00:14:59;98053.78;;;17.91;52.77
10176;BME280;18221;38.704;0.152;2024-03-08T00:17:28;98068.00;;;17.91;53.09
10176;BME280;18221;38.704;0.152;2024-03-08T00:19:56;98059.16;;;17.91;53.13
10176;BME280;18221;38.704;0.152;2024-03-08T00:22:24;98052.34;;;17.88;53.16
10176;BME280;18221;38.704;0.152;2024-03-08T00:24:51;98014.94;;;17.93;53.29
10176;BME280;18221;38.704;0.152;2024-03-08T00:27:19;98000.25;;;17.89;53.42
10176;BME280;18221;38.704;0.152;2024-03-08T00:29:48;98001.50;;;17.93;53.29
10176;BME280;18221;38.704;0.152;2024-03-08T00:32:15;98010.63;;;17.85;53.38
10176;BME280;18221;38.704;0.152;2024-03-08T00:34:45;98027.53;;;17.86;53.59
10176;BME280;18221;38.704;0.152;2024-03-08T00:37:13;98026.50;;;17.87;53.60
10176;BME280;18221;38.704;0.152;2024-03-08T00:39:41;98029.38;;;17.92;53.45
10176;BME280;18221;38.704;0.152;2024-03-08T00:42:09;98035.78;;;17.91;53.55
10176;BME280;18221;38.704;0.152;2024-03-08T00:44:37;98053.94;;;18.02;53.52
10176;BME280;18221;38.704;0.152;2024-03-08T00:47:06;98073.38;;;17.98;53.47
10176;BME280;18221;38.704;0.152;2024-03-08T00:49:34;98068.63;;;18.06;53.24
10176;BME280;18221;38.704;0.152;2024-03-08T01:02:26;98051.50;;;18.01;52.92
10176;BME280;18221;38.704;0.152;2024-03-08T01:04:55;98056.25;;;17.92;52.80
10176;BME280;18221;38.704;0.152;2024-03-08T01:07:23;98063.47;;;17.98;52.65
10176;BME280;18221;38.704;0.152;2024-03-08T01:09:51;98071.53;;;17.98;52.62
10176;BME280;18221;38.704;0.152;2024-03-08T01:12:18;98068.44;;;17.95;52.59
10176;BME280;18221;38.704;0.152;2024-03-08T01:14:46;98036.81;;;17.97;52.61
10176;BME280;18221;38.704;0.152;2024-03-08T01:17:14;98037.22;;;18.07;52.56
10176;BME280;18221;38.704;0.152;2024-03-08T01:19:43;98021.09;;;18.07;52.39
10176;BME280;18221;38.704;0.152;2024-03-08T01:22:11;98017.81;;;17.98;52.54
10176;BME280;18221;38.704;0.152;2024-03-08T01:24:40;98033.31;;;17.96;52.61
10176;BME280;18221;38.704;0.152;2024-03-08T01:27:08;98047.19;;;17.80;52.79
10176;BME280;18221;38.704;0.152;2024-03-08T01:29:36;98047.38;;;17.85;53.04
10176;BME280;18221;38.704;0.152;2024-03-08T01:32:05;98049.00;;;17.86;53.16
10176;BME280;18221;38.704;0.152;2024-03-08T01:34:33;98049.84;;;17.73;53.45
10176;BME280;18221;38.704;0.152;2024-03-08T01:37:02;98042.03;;;17.72;53.40
10176;BME280;18221;38.704;0.152;2024-03-08T01:39:30;98025.50;;;17.68;53.46
10176;BME280;18221;38.704;0.152;2024-03-08T01:41:59;98026.09;;;17.51;53.68
10176;BME280;18221;38.704;0.152;2024-03-08T01:44:27;98010.63;;;17.46;54.08
10176;BME280;18221;38.704;0.152;2024-03-08T01:46:56;97999.47;;;17.43;54.16
10176;BME280;18221;38.704;0.152;2024-03-08T01:49:25;97984.41;;;17.48;54.16
10176;BME280;18221;38.704;0.152;2024-03-08T01:51:55;97993.50;;;17.54;54.24
10176;BME280;18221;38.704;0.152;2024-03-08T01:54:26;98002.19;;;17.62;54.23
10176;BME280;18221;38.704;0.152;2024-03-08T01:56:54;98012.28;;;17.67;53.93
10176;BME280;18221;38.704;0.152;2024-03-08T01:59:24;98034.59;;;17.61;54.06
10176;BME280;18221;38.704;0.152;2024-03-08T02:01:55;98023.03;;;17.60;54.07
10176;BME280;18221;38.704;0.152;2024-03-08T02:04:28;98014.75;;;17.49;54.27
10176;BME280;18221;38.704;0.152;2024-03-08T02:06:58;98004.41;;;17.39;54.39
10176;BME280;18221;38.704;0.152;2024-03-08T02:09:28;98008.13;;;17.45;54.32
10176;BME280;18221;38.704;0.152;2024-03-08T02:11:57;98002.59;;;17.53;54.28
10176;BME280;18221;38.704;0.152;2024-03-08T02:14:25;98004.00;;;17.68;53.96
10176;BME280;18221;38.704;0.152;2024-03-08T02:16:56;97982.56;;;17.62;53.77
10176;BME280;18221;38.704;0.152;2024-03-08T02:19:27;97976.78;;;17.58;53.82
10176;BME280;18221;38.704;0.152;2024-03-08T02:21:57;97941.66;;;17.66;53.62
10176;BME280;18221;38.704;0.152;2024-03-08T02:24:25;97931.97;;;17.59;53.55
10176;BME280;18221;38.704;0.152;2024-03-08T02:26:53;97927.03;;;17.56;53.62
10176;BME280;18221;38.704;0.152;2024-03-08T02:29:23;97933.00;;;17.58;53.60
10176;BME280;18221;38.704;0.152;2024-03-08T02:31:52;97938.78;;;17.61;53.19
10176;BME280;18221;38.704;0.152;2024-03-08T02:34:22;97935.06;;;17.56;53.33
10176;BME280;18221;38.704;0.152;2024-03-08T02:36:49;97946.41;;;17.64;53.30
10176;BME280;18221;38.704;0.152;2024-03-08T02:39:19;97954.25;;;17.66;53.25
10176;BME280;18221;38.704;0.152;2024-03-08T02:41:48;97956.31;;;17.57;53.34
10176;BME280;18221;38.704;0.152;2024-03-08T02:44:16;97962.53;;;17.58;53.33
10176;BME280;18221;38.704;0.152;2024-03-08T02:46:43;97948.91;;;17.59;53.19
10176;BME280;18221;38.704;0.152;2024-03-08T02:49:11;97949.09;;;17.58;53.15
10176;BME280;18221;38.704;0.152;2024-03-08T02:51:39;97946.59;;;17.50;53.10
10176;BME280;18221;38.704;0.152;2024-03-08T02:54:07;97936.50;;;17.52;53.01
10176;BME280;18221;38.704;0.152;2024-03-08T02:56:38;97937.97;;;17.41;53.20
10176;BME280;18221;38.704;0.152;2024-03-08T02:59:05;97936.53;;;17.39;53.18
10176;BME280;18221;38.704;0.152;2024-03-08T03:01:34;97947.47;;;17.44;52.98
10176;BME280;18221;38.704;0.152;2024-03-08T03:04:02;97932.19;;;17.24;52.98
10176;BME280;18221;38.704;0.152;2024-03-08T03:06:30;97926.44;;;17.14;53.06
10176;BME280;18221;38.704;0.152;2024-03-08T03:08:58;97948.31;;;16.92;52.84
10176;BME280;18221;38.704;0.152;2024-03-08T03:11:25;97945.59;;;16.85;52.51
10176;BME280;18221;38.704;0.152;2024-03-08T03:13:55;97932.38;;;16.77;52.11
10176;BME280;18221;38.704;0.152;2024-03-08T03:16:23;97934.88;;;16.85;51.75
10176;BME280;18221;38.704;0.152;2024-03-08T03:18:50;97937.56;;;16.79;51.54
10176;BME280;18221;38.704;0.152;2024-03-08T03:21:18;97925.16;;;16.84;50.98
10176;BME280;18221;38.704;0.152;2024-03-08T03:23:46;97937.97;;;16.89;50.07
10176;BME280;18221;38.704;0.152;2024-03-08T03:26:14;97936.72;;;16.78;49.26
10176;BME280;18221;38.704;0.152;2024-03-08T03:28:43;97929.31;;;16.87;48.21
10176;BME280;18221;38.704;0.152;2024-03-08T03:31:12;97935.09;;;16.97;47.51
10176;BME280;18221;38.704;0.152;2024-03-08T03:33:41;97952.22;;;17.02;47.19
10176;BME280;18221;38.704;0.152;2024-03-08T03:36:09;97958.00;;;17.12;46.60
10176;BME280;18221;38.704;0.152;2024-03-08T03:38:38;97950.56;;;17.01;45.68
10176;BME280;18221;38.704;0.152;2024-03-08T03:41:06;97949.31;;;16.97;45.85
10176;BME280;18221;38.704;0.152;2024-03-08T03:43:36;97952.41;;;17.01;45.68
10176;BME280;18221;38.704;0.152;2024-03-08T03:46:06;97931.38;;;17.04;45.13
10176;BME280;18221;38.704;0.152;2024-03-08T03:48:38;97909.94;;;16.91;44.87
10176;BME280;18221;38.704;0.152;2024-03-08T03:51:06;97907.44;;;16.83;44.44
10176;BME280;18221;38.704;0.152;2024-03-08T03:53:34;97933.22;;;16.91;43.75
10176;BME280;18221;38.704;0.152;2024-03-08T03:56:01;97946.63;;;16.97;43.22
10176;BME280;18221;38.704;0.152;2024-03-08T03:58:33;97944.38;;;16.94;42.54
10176;BME280;18221;38.704;0.152;2024-03-08T04:01:01;97941.06;;;16.92;42.48
10176;BME280;18221;38.704;0.152;2024-03-08T04:03:29;97939.81;;;16.82;41.92
10176;BME280;18221;38.704;0.152;2024-03-08T04:05:59;97934.44;;;16.82;41.70
10176;BME280;18221;38.704;0.152;2024-03-08T04:08:27;97933.22;;;16.78;42.39
10176;BME280;18221;38.704;0.152;2024-03-08T04:10:55;97931.78;;;16.75;42.05
10176;BME280;18221;38.704;0.152;2024-03-08T04:13:24;97934.44;;;16.68;42.40
10176;BME280;18221;38.704;0.152;2024-03-08T04:15:52;97927.66;;;16.73;42.60
10176;BME280;18221;38.704;0.152;2024-03-08T04:18:20;97921.66;;;16.77;42.23
10176;BME280;18221;38.704;0.152;2024-03-08T04:20:48;97940.84;;;16.74;41.51
10176;BME280;18221;38.704;0.152;2024-03-08T04:23:18;97933.44;;;16.76;40.79
10176;BME280;18221;38.704;0.152;2024-03-08T04:25:45;97946.22;;;16.87;40.75
10176;BME280;18221;38.704;0.152;2024-03-08T04:28:13;97958.59;;;16.75;40.95
10176;BME280;18221;38.704;0.152;2024-03-08T04:30:43;97946.81;;;16.70;40.93
10176;BME280;18221;38.704;0.152;2024-03-08T04:33:12;97959.38;;;16.69;41.23
10176;BME280;18221;38.704;0.152;2024-03-08T04:35:45;97968.84;;;16.58;41.48
10176;BME280;18221;38.704;0.152;2024-03-08T04:38:13;97958.50;;;16.42;40.30
10176;BME280;18221;38.704;0.152;2024-03-08T04:40:43;97959.69;;;16.33;37.83
10176;BME280;18221;38.704;0.152;2024-03-08T04:43:11;97957.81;;;16.27;37.56
10176;BME280;18221;38.704;0.152;2024-03-08T04:45:40;97962.09;;;16.15;36.94
10176;BME280;18221;38.704;0.152;2024-03-08T04:48:09;97950.94;;;16.12;36.67
10176;BME280;18221;38.704;0.152;2024-03-08T04:50:37;97961.50;;;16.20;35.92
10176;BME280;18221;38.704;0.152;2024-03-08T04:53:06;97958.34;;;16.10;34.96
10176;BME280;18221;38.704;0.152;2024-03-08T04:55:35;97968.63;;;16.06;33.65
10176;BME280;18221;38.704;0.152;2024-03-08T04:58:05;97977.03;;;15.96;33.15
10176;BME280;18221;38.704;0.152;2024-03-08T05:00:33;97982.38;;;15.90;32.95
10176;BME280;18221;38.704;0.152;2024-03-08T05:03:01;97984.63;;;15.86;32.43
10176;BME280;18221;38.704;0.152;2024-03-08T05:05:30;97969.00;;;15.96;31.67
10176;BME280;18221;38.704;0.152;2024-03-08T05:07:59;97959.13;;;15.97;31.65
10176;BME280;18221;38.704;0.152;2024-03-08T05:10:27;97972.72;;;15.95;31.09
10176;BME280;18221;38.704;0.152;2024-03-08T05:12:55;97978.78;;;16.11;30.63
10176;BME280;18221;38.704;0.152;2024-03-08T05:15:25;97982.47;;;16.10;31.75
10176;BME280;18221;38.704;0.152;2024-03-08T05:17:53;97994.53;;;15.92;31.19
10176;BME280;18221;38.704;0.152;2024-03-08T05:20:22;97994.72;;;15.91;31.83
10176;BME280;18221;38.704;0.152;2024-03-08T05:22:50;97988.53;;;15.90;31.91
10176;BME280;18221;38.704;0.152;2024-03-08T05:25:18;97994.81;;;15.70;31.30
10176;BME280;18221;38.704;0.152;2024-03-08T05:27:46;97979.84;;;15.48;31.06
10176;BME280;18221;38.704;0.152;2024-03-08T05:30:15;97988.66;;;15.20;30.75
10176;BME280;18221;38.704;0.152;2024-03-08T05:32:44;97984.69;;;15.37;30.46
10176;BME280;18221;38.704;0.152;2024-03-08T05:35:12;97979.25;;;15.52;30.02
10176;BME280;18221;38.704;0.152;2024-03-08T05:37:42;97975.34;;;15.48;30.09
10176;BME280;18221;38.704;0.152;2024-03-08T05:40:11;97983.16;;;15.50;29.69
10176;BME280;18221;38.704;0.152;2024-03-08T05:42:39;97974.50;;;15.48;29.76
10176;BME280;18221;38.704;0.152;2024-03-08T05:45:08;97990.88;;;15.38;29.70
10176;BME280;18221;38.704;0.152;2024-03-08T05:47:39;97999.28;;;15.35;29.28
10176;BME280;18221;38.704;0.152;2024-03-08T05:50:09;97992.88;;;15.36;29.03
10176;BME280;18221;38.704;0.152;2024-03-08T05:52:37;97986.44;;;15.52;29.52
10176;BME280;18221;38.704;0.152;2024-03-08T05:55:06;98001.56;;;15.38;29.18
10176;BME280;18221;38.704;0.152;2024-03-08T05:57:36;97995.13;;;15.54;29.27
10176;BME280;18221;38.704;0.152;2024-03-08T06:00:07;97997.56;;;15.49;29.08
10176;BME280;18221;38.704;0.152;2024-03-08T06:02:37;98006.47;;;15.34;28.73
10176;BME280;18221;38.704;0.152;2024-03-08T06:05:10;98000.41;;;15.47;29.70
10176;BME280;18221;38.704;0.152;2024-03-08T06:07:38;98006.22;;;15.51;29.40
10176;BME280;18221;38.704;0.152;2024-03-08T06:10:09;98007.34;;;15.41;29.47
10176;BME280;18221;38.704;0.152;2024-03-08T06:12:39;97998.69;;;15.39;29.39
10176;BME280;18221;38.704;0.152;2024-03-08T06:15:09;98003.00;;;15.13;28.90
10176;BME280;18221;38.704;0.152;2024-03-08T06:17:40;98008.91;;;15.29;28.86
10176;BME280;18221;38.704;0.152;2024-03-08T06:20:11;98009.47;;;15.46;28.58
10176;BME280;18221;38.704;0.152;2024-03-08T06:22:39;98008.31;;;15.55;28.85
10176;BME280;18221;38.704;0.152;2024-03-08T06:25:09;98008.31;;;15.55;28.45
10176;BME280;18221;38.704;0.152;2024-03-08T06:27:40;98017.31;;;15.48;28.36
10176;BME280;18221;38.704;0.152;2024-03-08T06:30:10;98015.78;;;15.66;28.90
10176;BME280;18221;38.704;0.152;2024-03-08T06:32:38;98016.41;;;15.68;28.67
10176;BME280;18221;38.704;0.152;2024-03-08T06:35:09;98015.69;;;15.81;28.84
10176;BME280;18221;38.704;0.152;2024-03-08T06:37:37;98022.53;;;15.90;28.17
10176;BME280;18221;38.704;0.152;2024-03-08T06:40:07;98026.00;;;15.84;28.86
10176;BME280;18221;38.704;0.152;2024-03-08T06:42:39;98030.91;;;15.80;28.70
10176;BME280;18221;38.704;0.152;2024-03-08T06:45:08;98026.44;;;15.87;28.77
10176;BME280;18221;38.704;0.152;2024-03-08T06:47:36;98027.84;;;15.83;28.31
10176;BME280;18221;38.704;0.152;2024-03-08T06:50:05;98030.53;;;15.83;27.94
10176;BME280;18221;38.704;0.152;2024-03-08T06:52:35;98036.25;;;15.80;28.59
10176;BME280;18221;38.704;0.152;2024-03-08T06:55:06;98047.44;;;15.90;28.93
10176;BME280;18221;38.704;0.152;2024-03-08T06:57:36;98056.34;;;15.97;28.33
10176;BME280;18221;38.704;0.152;2024-03-08T07:00:07;98066.31;;;16.10;28.35
10176;BME280;18221;38.704;0.152;2024-03-08T07:02:36;98082.00;;;16.13;28.25
10176;BME280;18221;38.704;0.152;2024-03-08T07:05:06;98080.78;;;16.16;27.96
10176;BME280;18221;38.704;0.152;2024-03-08T07:07:38;98094.63;;;16.26;28.49
10176;BME280;18221;38.704;0.152;2024-03-08T07:10:08;98089.13;;;16.34;27.78
10176;BME280;18221;38.704;0.152;2024-03-08T07:12:37;98097.00;;;16.48;28.94
10176;BME280;18221;38.704;0.152;2024-03-08T07:15:06;98088.41;;;16.53;28.90
10176;BME280;18221;38.704;0.152;2024-03-08T07:17:35;98087.59;;;16.52;28.51
10176;BME280;18221;38.704;0.152;2024-03-08T07:20:03;98075.00;;;16.53;29.88
10176;BME280;18221;38.704;0.152;2024-03-08T07:22:39;98076.88;;;16.52;29.24
10176;BME280;18221;38.704;0.152;2024-03-08T07:25:07;98078.34;;;16.61;29.67
10176;BME280;18221;38.704;0.152;2024-03-08T07:27:47;98080.03;;;16.69;30.05
10176;BME280;18221;38.704;0.152;2024-03-08T07:30:15;98075.50;;;16.70;30.85
10176;BME280;18221;38.704;0.152;2024-03-08T07:33:04;98087.66;;;16.72;30.89
10176;BME280;18221;38.704;0.152;2024-03-08T07:35:33;98092.56;;;16.62;29.88
10176;BME280;18221;38.704;0.152;2024-03-08T07:38:05;98087.06;;;16.77;30.84
10176;BME280;18221;38.704;0.152;2024-03-08T07:40:36;98086.88;;;16.78;30.37
10176;BME280;18221;38.704;0.152;2024-03-08T07:43:06;98090.16;;;16.80;29.67
10176;BME280;18221;38.704;0.152;2024-03-08T07:45:34;98093.06;;;16.79;29.38
10176;BME280;18221;38.704;0.152;2024-03-08T07:48:03;98098.38;;;16.65;29.74
10176;BME280;18221;38.704;0.152;2024-03-08T07:50:36;98095.09;;;16.70;28.94
10176;BME280;18221;38.704;0.152;2024-03-08T07:53:07;98097.94;;;16.62;29.24
10176;BME280;18221;38.704;0.152;2024-03-08T07:55:35;98100.13;;;16.52;28.99
10176;BME280;18221;38.704;0.152;2024-03-08T07:58:04;98108.69;;;16.68;29.61
10176;BME280;18221;38.704;0.152;2024-03-08T08:00:32;98104.16;;;16.69;31.10
10176;BME280;18221;38.704;0.152;2024-03-08T08:03:00;98116.97;;;16.74;31.35
10176;BME280;18221;38.704;0.152;2024-03-08T08:05:28;98110.44;;;16.89;32.18
10176;BME280;18221;38.704;0.152;2024-03-08T08:07:58;98106.47;;;16.85;32.46
10176;BME280;18221;38.704;0.152;2024-03-08T08:10:27;98109.97;;;16.79;32.46
10176;BME280;18221;38.704;0.152;2024-03-08T08:12:55;98094.53;;;16.81;31.86
10176;BME280;18221;38.704;0.152;2024-03-08T08:15:23;98103.63;;;17.00;31.43
10176;BME280;18221;38.704;0.152;2024-03-08T08:17:51;98100.75;;;17.01;31.48
10176;BME280;18221;38.704;0.152;2024-03-08T08:20:19;98096.81;;;16.97;30.90
10176;BME280;18221;38.704;0.152;2024-03-08T08:22:48;98102.13;;;16.71;30.24
10176;BME280;18221;38.704;0.152;2024-03-08T08:25:16;98095.44;;;16.54;30.80
10176;BME280;18221;38.704;0.152;2024-03-08T08:27:48;98099.50;;;16.50;31.52
10176;BME280;18221;38.704;0.152;2024-03-08T08:30:16;98093.59;;;16.54;31.92
10176;BME280;18221;38.704;0.152;2024-03-08T08:32:43;98097.28;;;16.53;31.62
10176;BME280;18221;38.704;0.152;2024-03-08T08:35:13;98094.25;;;16.70;32.20
10176;BME280;18221;38.704;0.152;2024-03-08T08:37:41;98108.28;;;16.72;31.92
10176;BME280;18221;38.704;0.152;2024-03-08T08:40:11;98097.94;;;16.68;31.98
10176;BME280;18221;38.704;0.152;2024-03-08T08:42:41;98106.22;;;16.67;31.45
10176;BME280;18221;38.704;0.152;2024-03-08T08:45:11;98103.13;;;16.70;30.79
10176;BME280;18221;38.704;0.152;2024-03-08T08:47:39;98098.44;;;16.79;31.45
10176;BME280;18221;38.704;0.152;2024-03-08T08:50:09;98098.00;;;16.82;32.10
10176;BME280;18221;38.704;0.152;2024-03-08T08:52:38;98095.78;;;16.92;32.23
10176;BME280;18221;38.704;0.152;2024-03-08T08:55:06;98098.00;;;16.75;31.89
10176;BME280;18221;38.704;0.152;2024-03-08T08:57:34;98103.19;;;16.90;31.89
10176;BME280;18221;38.704;0.152;2024-03-08T09:00:03;98097.66;;;16.98;32.88
10176;BME280;18221;38.704;0.152;2024-03-08T09:02:34;98099.66;;;16.76;32.80
10176;BME280;18221;38.704;0.152;2024-03-08T09:05:04;98092.84;;;16.80;32.89
10176;BME280;18221;38.704;0.152;2024-03-08T09:07:32;98099.00;;;16.74;32.53
10176;BME280;18221;38.704;0.152;2024-03-08T09:10:00;98098.03;;;16.88;33.00
10176;BME280;18221;38.704;0.152;2024-03-08T09:12:28;98104.06;;;17.03;32.30
10176;BME280;18221;38.704;0.152;2024-03-08T09:14:59;98101.16;;;16.92;32.00
10176;BME280;18221;38.704;0.152;2024-03-08T09:17:27;98105.50;;;16.99;31.65
10176;BME280;18221;38.704;0.152;2024-03-08T09:19:56;98109.25;;;17.11;31.65
10176;BME280;18221;38.704;0.152;2024-03-08T09:22:24;98109.69;;;17.15;30.67
10176;BME280;18221;38.704;0.152;2024-03-08T09:24:52;98116.28;;;17.19;30.79
10176;BME280;18221;38.704;0.152;2024-03-08T09:27:19;98107.78;;;17.15;31.16
10176;BME280;18221;38.704;0.152;2024-03-08T09:29:47;98104.50;;;17.13;30.73
10176;BME280;18221;38.704;0.152;2024-03-08T09:32:15;98110.06;;;17.18;30.95
10176;BME280;18221;38.704;0.152;2024-03-08T09:34:43;98103.47;;;17.14;30.49
10176;BME280;18221;38.704;0.152;2024-03-08T09:37:13;98106.59;;;17.24;30.31
10176;BME280;18221;38.704;0.152;2024-03-08T09:39:40;98106.38;;;17.26;29.23
10176;BME280;18221;38.704;0.152;2024-03-08T09:42:08;98102.25;;;17.37;29.11
10176;BME280;18221;38.704;0.152;2024-03-08T09:44:37;98109.09;;;17.52;28.82
10176;BME280;18221;38.704;0.152;2024-03-08T09:47:06;98110.56;;;17.55;29.24
10176;BME280;18221;38.704;0.152;2024-03-08T09:49:34;98108.34;;;17.65;28.83
10176;BME280;18221;38.704;0.152;2024-03-08T09:52:03;98114.09;;;17.62;28.65
10176;BME280;18221;38.704;0.152;2024-03-08T09:54:34;98114.31;;;17.67;29.24
10176;BME280;18221;38.704;0.152;2024-03-08T09:57:04;98112.00;;;17.51;28.78
10176;BME280;18221;38.704;0.152;2024-03-08T09:59:34;98106.06;;;17.62;29.24
10176;BME280;18221;38.704;0.152;2024-03-08T10:02:15;98113.47;;;17.73;29.78
10176;BME280;18221;38.704;0.152;2024-03-08T10:04:45;98107.91;;;17.68;29.38
10176;BME280;18221;38.704;0.152;2024-03-08T10:07:14;98115.75;;;17.63;29.68
10176;BME280;18221;38.704;0.152;2024-03-08T10:09:43;98103.16;;;17.57;29.80
10176;BME280;18221;38.704;0.152;2024-03-08T10:12:17;98100.28;;;17.65;30.23
10176;BME280;18221;38.704;0.152;2024-03-08T10:14:46;98098.63;;;17.64;28.67
10176;BME280;18221;38.704;0.152;2024-03-08T10:17:14;98102.13;;;17.71;29.49
10176;BME280;18221;38.704;0.152;2024-03-08T10:19:50;98107.91;;;17.74;29.36
10176;BME280;18221;38.704;0.152;2024-03-08T10:22:19;98109.97;;;17.66;28.65
10176;BME280;18221;38.704;0.152;2024-03-08T10:24:48;98109.34;;;17.70;28.47
10176;BME280;18221;38.704;0.152;2024-03-08T10:27:17;98120.31;;;17.69;27.71
10176;BME280;18221;38.704;0.152;2024-03-08T10:29:48;98112.25;;;17.69;28.00
10176;BME280;18221;38.704;0.152;2024-03-08T10:32:18;98116.78;;;17.75;28.09
10176;BME280;18221;38.704;0.152;2024-03-08T10:34:46;98114.13;;;17.75;27.53
10176;BME280;18221;38.704;0.152;2024-03-08T10:37:21;98116.78;;;17.75;27.44
10176;BME280;18221;38.704;0.152;2024-03-08T10:40:02;98125.47;;;17.90;27.67
10176;BME280;18221;38.704;0.152;2024-03-08T10:42:40;98126.50;;;17.69;26.68
10176;BME280;18221;38.704;0.152;2024-03-08T10:45:15;98126.72;;;17.87;26.93
10176;BME280;18221;38.704;0.152;2024-03-08T10:47:57;98131.47;;;17.99;27.99
10176;BME280;18221;38.704;0.152;2024-03-08T10:50:42;98134.34;;;17.97;28.62
10176;BME280;18221;38.704;0.152;2024-03-08T10:53:13;98138.06;;;17.96;29.36
10176;BME280;18221;38.704;0.152;2024-03-08T10:55:44;98140.97;;;18.01;29.50
10176;BME280;18221;38.704;0.152;2024-03-08T10:58:17;98138.47;;;18.06;29.34
10176;BME280;18221;38.704;0.152;2024-03-08T11:00:45;98145.66;;;18.38;29.34
10176;BME280;18221;38.704;0.152;2024-03-08T11:03:47;98133.69;;;18.47;28.76
10176;BME280;18221;38.704;0.152;2024-03-08T11:06:23;98141.72;;;18.41;27.26
10176;BME280;18221;38.704;0.152;2024-03-08T11:08:58;98137.19;;;18.35;27.28
10176;BME280;18221;38.704;0.152;2024-03-08T11:11:31;98142.97;;;18.38;27.92
10176;BME280;18221;38.704;0.152;2024-03-08T11:14:01;98139.22;;;18.46;28.50
10176;BME280;18221;38.704;0.152;2024-03-08T11:16:43;98125.81;;;18.33;28.95
10176;BME280;18221;38.704;0.152;2024-03-08T11:19:25;98136.59;;;18.26;30.34
10176;BME280;18221;38.704;0.152;2024-03-08T11:22:00;98135.31;;;18.42;30.21
10176;BME280;18221;38.704;0.152;2024-03-08T11:24:28;98144.00;;;18.44;29.72
10176;BME280;18221;38.704;0.152;2024-03-08T11:27:06;98135.13;;;18.17;29.41
10176;BME280;18221;38.704;0.152;2024-03-08T11:29:39;98144.88;;;18.18;28.54
10176;BME280;18221;38.704;0.152;2024-03-08T11:32:11;98134.50;;;18.35;27.95
10176;BME280;18221;38.704;0.152;2024-03-08T11:34:40;98132.84;;;18.54;28.67
10176;BME280;18221;38.704;0.152;2024-03-08T11:37:14;98121.59;;;18.70;28.08
10176;BME280;18221;38.704;0.152;2024-03-08T11:39:47;98134.75;;;18.91;28.27
10176;BME280;18221;38.704;0.152;2024-03-08T11:42:18;98118.63;;;18.91;27.57
10176;BME280;18221;38.704;0.152;2024-03-08T11:44:46;98125.31;;;18.75;26.85
10176;BME280;18221;38.704;0.152;2024-03-08T11:47:14;98122.72;;;19.00;27.67
10176;BME280;18221;38.704;0.152;2024-03-08T11:49:42;98122.19;;;18.85;26.94
10176;BME280;18221;38.704;0.152;2024-03-08T11:52:14;98128.59;;;18.84;27.30
10176;BME280;18221;38.704;0.152;2024-03-08T11:54:48;98121.06;;;18.99;27.68
10176;BME280;18221;38.704;0.152;2024-03-08T11:57:23;98111.13;;;18.99;27.50
10176;BME280;18221;38.704;0.152;2024-03-08T11:59:51;98123.03;;;19.17;28.24
10176;BME280;18221;38.704;0.152;2024-03-08T12:02:19;98111.47;;;19.16;29.51
10176;BME280;18221;38.704;0.152;2024-03-08T12:04:47;98114.69;;;19.31;28.73
10176;BME280;18221;38.704;0.152;2024-03-08T12:07:16;98119.38;;;19.42;28.00
10176;BME280;18221;38.704;0.152;2024-03-08T12:10:15;98120.06;;;19.38;27.35
10176;BME280;18221;38.704;0.152;2024-03-08T12:12:46;98112.19;;;19.36;27.67
10176;BME280;18221;38.704;0.152;2024-03-08T12:15:16;98107.91;;;19.22;29.42
10176;BME280;18221;38.704;0.152;2024-03-08T12:17:46;98103.94;;;19.31;28.59
10176;BME280;18221;38.704;0.152;2024-03-08T12:20:19;98100.06;;;19.21;27.64
10176;BME280;18221;38.704;0.152;2024-03-08T12:22:51;98093.25;;;19.18;28.09
10176;BME280;18221;38.704;0.152;2024-03-08T12:25:20;98094.44;;;19.22;28.57
10176;BME280;18221;38.704;0.152;2024-03-08T12:27:50;98091.66;;;19.42;29.32
10176;BME280;18221;38.704;0.152;2024-03-08T12:30:22;98083.97;;;19.45;29.70
10176;BME280;18221;38.704;0.152;2024-03-08T12:32:55;98085.97;;;19.56;28.80
10176;BME280;18221;38.704;0.152;2024-03-08T12:35:26;98086.25;;;19.73;28.71
10176;BME280;18221;38.704;0.152;2024-03-08T12:37:56;98093.25;;;19.74;27.90
10176;BME280;18221;38.704;0.152;2024-03-08T12:40:28;98077.97;;;19.43;28.41
10176;BME280;18221;38.704;0.152;2024-03-08T12:42:59;98078.91;;;19.55;28.01
10176;BME280;18221;38.704;0.152;2024-03-08T12:45:28;98072.88;;;19.60;27.08
10176;BME280;18221;38.704;0.152;2024-03-08T12:47:56;98070.09;;;19.73;27.70
10176;BME280;18221;38.704;0.152;2024-03-08T12:50:25;98067.44;;;19.91;28.14
10176;BME280;18221;38.704;0.152;2024-03-08T12:52:53;98064.53;;;19.68;29.65
10176;BME280;18221;38.704;0.152;2024-03-08T12:55:27;98069.72;;;20.12;30.28
10176;BME280;18221;38.704;0.152;2024-03-08T12:58:01;98060.91;;;19.81;27.37
10176;BME280;18221;38.704;0.152;2024-03-08T13:00:28;98065.59;;;20.10;28.95
10176;BME280;18221;38.704;0.152;2024-03-08T13:02:56;98055.06;;;20.63;29.57
10176;BME280;18221;38.704;0.152;2024-03-08T13:05:25;98057.38;;;20.77;30.16
10176;BME280;18221;38.704;0.152;2024-03-08T13:07:54;98054.38;;;20.85;29.53
10176;BME280;18221;38.704;0.152;2024-03-08T13:10:22;98055.47;;;20.96;29.84
10176;BME280;18221;38.704;0.152;2024-03-08T13:12:49;98061.44;;;21.16;29.12
10176;BME280;18221;38.704;0.152;2024-03-08T13:15:20;98049.63;;;21.29;29.15
10176;BME280;18221;38.704;0.152;2024-03-08T13:17:50;98051.53;;;21.40;28.52
10176;BME280;18221;38.704;0.152;2024-03-08T13:20:18;98040.38;;;21.48;28.63
10176;BME280;18221;38.704;0.152;2024-03-08T13:22:46;98042.22;;;21.24;27.96